createdAt,value
2022-08-08T00:00:53.657Z,49.90
2022-08-08T00:02:58.583Z,49.60
2022-08-08T00:05:44.367Z,49.37
2022-08-08T00:08:27.301Z,49.32
2022-08-08T00:11:00.723Z,48.58
2022-08-08T00:14:17.294Z,48.56
2022-08-08T00:16:41.197Z,48.67
2022-08-08T00:19:19.658Z,47.82
2022-08-08T00:21:57.094Z,48.14
2022-08-08T00:24:30.307Z,48.23
2022-08-08T00:27:05.827Z,48.77
2022-08-08T00:29:45.032Z,48.73
2022-08-08T00:32:34.325Z,48.38
2022-08-08T00:35:30.100Z,48.09
2022-08-08T00:38:32.199Z,48.15
2022-08-08T00:42:08.943Z,48.48
2022-08-08T00:45:21.647Z,48.10
2022-08-08T00:48:29.813Z,48.78
2022-08-08T00:51:39.163Z,47.79
2022-08-08T00:54:42.596Z,48.38
2022-08-08T00:57:42.563Z,48.19
2022-08-08T01:00:13.614Z,48.57
2022-08-08T01:04:02.283Z,48.79
2022-08-08T01:06:48.175Z,49.79
2022-08-08T01:09:49.013Z,49.18
2022-08-08T01:12:55.360Z,49.69
2022-08-08T01:16:08.626Z,49.74
2022-08-08T01:19:25.339Z,49.50
2022-08-08T01:22:36.592Z,50.12
2022-08-08T01:25:54.117Z,50.38
2022-08-08T01:28:47.239Z,50.27
2022-08-08T01:32:12.796Z,50.39
2022-08-08T01:35:11.840Z,50.35
2022-08-08T01:38:31.352Z,50.17
2022-08-08T01:41:05.847Z,50.27
2022-08-08T01:43:50.509Z,50.38
2022-08-08T01:46:44.044Z,50.99
2022-08-08T01:49:23.376Z,51.31
2022-08-08T01:53:01.100Z,50.87
2022-08-08T01:56:25.976Z,51.03
2022-08-08T01:58:38.919Z,51.69
2022-08-08T02:01:20.387Z,51.76
2022-08-08T02:04:03.337Z,51.56
2022-08-08T02:06:53.079Z,51.73
2022-08-08T02:10:02.055Z,51.66
2022-08-08T02:12:27.342Z,51.71
2022-08-08T02:15:04.198Z,51.50
2022-08-08T02:17:57.547Z,51.89
2022-08-08T02:21:02.171Z,52.38
2022-08-08T02:23:31.651Z,52.37
2022-08-08T02:26:09.979Z,52.04
2022-08-08T02:28:51.690Z,52.45
2022-08-08T02:31:59.623Z,52.21
2022-08-08T02:35:08.527Z,52.64
2022-08-08T02:37:57.071Z,52.90
2022-08-08T02:40:39.152Z,53.37
2022-08-08T02:44:37.347Z,53.11
2022-08-08T02:46:53.882Z,53.83
2022-08-08T02:49:52.455Z,54.13
2022-08-08T02:52:50.339Z,54.14
2022-08-08T02:55:44.675Z,53.75
2022-08-08T03:01:50.077Z,54.09
2022-08-08T03:05:03.296Z,53.95
2022-08-08T03:08:14.038Z,54.17
2022-08-08T03:11:47.397Z,53.67
2022-08-08T03:16:00.048Z,53.03
2022-08-08T03:17:40.684Z,53.39
2022-08-08T03:20:11.401Z,52.70
2022-08-08T03:22:46.184Z,53.00
2022-08-08T03:25:18.793Z,53.02
2022-08-08T03:27:56.427Z,53.24
2022-08-08T03:30:25.572Z,53.34
2022-08-08T03:33:55.430Z,53.16
2022-08-08T03:35:59.934Z,52.57
2022-08-08T03:38:57.648Z,53.05
2022-08-08T03:42:12.711Z,53.23
2022-08-08T03:44:06.539Z,53.60
2022-08-08T03:46:47.195Z,53.89
2022-08-08T03:49:57.464Z,54.09
2022-08-08T03:52:08.266Z,54.08
2022-08-08T03:55:01.557Z,54.21
2022-08-08T03:58:33.247Z,53.79
2022-08-08T04:00:21.650Z,53.58
2022-08-08T04:02:59.276Z,54.46
2022-08-08T04:05:29.177Z,54.09
2022-08-08T04:07:58.040Z,54.73
2022-08-08T04:10:31.945Z,54.59
2022-08-08T04:13:00.615Z,55.26
2022-08-08T04:15:38.580Z,55.30
2022-08-08T04:18:09.321Z,55.68
2022-08-08T04:20:44.408Z,55.97
2022-08-08T04:23:15.434Z,56.10
2022-08-08T04:25:44.779Z,55.83
2022-08-08T04:28:37.293Z,55.66
2022-08-08T04:31:06.063Z,56.24
2022-08-08T04:33:41.497Z,56.43
2022-08-08T04:36:09.977Z,57.16
2022-08-08T04:38:38.410Z,56.92
2022-08-08T04:41:18.064Z,57.04
2022-08-08T04:43:54.283Z,56.36
2022-08-08T04:46:25.300Z,56.28
2022-08-08T04:48:58.819Z,56.37
2022-08-08T04:51:28.119Z,56.24
2022-08-08T04:54:39.590Z,56.60
2022-08-08T04:57:03.349Z,56.22
2022-08-08T04:59:31.732Z,56.39
2022-08-08T05:02:10.162Z,56.75
2022-08-08T05:04:41.960Z,56.84
2022-08-08T05:07:14.923Z,56.87
2022-08-08T05:09:43.329Z,56.20
2022-08-08T05:12:21.076Z,56.53
2022-08-08T05:14:49.210Z,57.54
2022-08-08T05:17:20.097Z,57.70
2022-08-08T05:20:12.227Z,57.51
2022-08-08T05:22:37.004Z,57.86
2022-08-08T05:25:05.647Z,57.67
2022-08-08T05:27:41.496Z,57.18
2022-08-08T05:30:11.061Z,57.16
2022-08-08T05:32:39.401Z,56.96
2022-08-08T05:35:09.620Z,57.09
2022-08-08T05:37:53.193Z,57.88
2022-08-08T05:40:28.544Z,57.64
2022-08-08T05:43:03.248Z,57.47
2022-08-08T05:45:53.125Z,57.29
2022-08-08T05:48:28.476Z,57.59
2022-08-08T05:51:13.591Z,57.86
2022-08-08T05:54:26.083Z,57.58
2022-08-08T05:56:38.580Z,58.18
2022-08-08T05:59:17.138Z,58.35
2022-08-08T06:02:29.019Z,58.74
2022-08-08T06:05:02.213Z,57.94
2022-08-08T06:07:34.927Z,58.03
2022-08-08T06:10:06.303Z,58.28
2022-08-08T06:12:36.475Z,57.84
2022-08-08T06:15:09.180Z,57.44
2022-08-08T06:18:18.095Z,57.16
2022-08-08T06:20:32.055Z,55.73
2022-08-08T06:23:00.955Z,55.03
2022-08-08T06:26:36.176Z,54.90
2022-08-08T06:28:28.970Z,54.98
2022-08-08T06:31:00.810Z,55.19
2022-08-08T06:34:25.687Z,55.25
2022-08-08T06:36:32.819Z,55.05
2022-08-08T06:39:06.794Z,55.13
2022-08-08T06:41:39.207Z,54.63
2022-08-08T06:44:12.077Z,54.61
2022-08-08T06:46:47.808Z,54.32
2022-08-08T06:49:17.870Z,54.16
2022-08-08T06:51:58.018Z,53.98
2022-08-08T06:54:26.930Z,54.29
2022-08-08T06:56:55.579Z,54.16
2022-08-08T06:59:24.010Z,53.10
2022-08-08T07:02:26.941Z,53.01
2022-08-08T07:04:55.110Z,52.88
2022-08-08T07:07:37.150Z,53.15
2022-08-08T07:10:08.088Z,53.30
2022-08-08T07:12:41.028Z,52.77
2022-08-08T07:15:32.157Z,52.93
2022-08-08T07:18:36.191Z,52.74
2022-08-08T07:21:02.259Z,53.03
2022-08-08T07:24:01.221Z,53.14
2022-08-08T07:26:35.123Z,52.98
2022-08-08T07:29:08.216Z,53.00
2022-08-08T07:31:39.542Z,53.14
2022-08-08T07:34:26.801Z,52.81
2022-08-08T07:37:00.611Z,52.05
2022-08-08T07:39:45.207Z,51.62
2022-08-08T07:42:21.788Z,51.72
2022-08-08T07:45:01.986Z,51.69
2022-08-08T07:47:38.516Z,51.20
2022-08-08T07:50:10.329Z,51.63
2022-08-08T07:52:43.956Z,51.56
2022-08-08T07:55:28.655Z,51.71
2022-08-08T07:58:05.545Z,51.73
2022-08-08T08:00:41.186Z,49.99
2022-08-08T08:03:20.630Z,50.12
2022-08-08T08:05:57.640Z,50.15
2022-08-08T08:08:28.364Z,50.08
2022-08-08T08:11:00.410Z,49.93
2022-08-08T08:13:42.657Z,50.77
2022-08-08T08:16:27.713Z,50.80
2022-08-08T08:19:01.265Z,50.48
2022-08-08T08:21:44.924Z,50.90
2022-08-08T08:24:30.637Z,51.26
2022-08-08T08:27:02.956Z,51.69
2022-08-08T08:29:31.365Z,51.15
2022-08-08T08:32:03.273Z,50.98
2022-08-08T08:34:33.723Z,51.03
2022-08-08T08:37:07.517Z,50.40
2022-08-08T08:40:00.277Z,49.61
2022-08-08T08:42:29.008Z,48.97
2022-08-08T08:45:01.492Z,49.06
2022-08-08T08:47:45.403Z,48.69
2022-08-08T08:50:31.868Z,48.93
2022-08-08T08:53:27.953Z,49.06
2022-08-08T08:55:55.003Z,49.54
2022-08-08T08:58:31.672Z,49.07
2022-08-08T09:01:10.439Z,48.57
2022-08-08T09:03:47.425Z,46.48
2022-08-08T09:06:26.384Z,46.33
2022-08-08T09:09:03.706Z,47.15
2022-08-08T09:11:35.306Z,46.92
2022-08-08T09:14:16.694Z,46.88
2022-08-08T09:16:47.729Z,47.55
2022-08-08T09:21:53.546Z,47.46
2022-08-08T09:22:07.599Z,48.43
2022-08-08T09:24:37.091Z,47.79
2022-08-08T09:27:14.875Z,47.36
2022-08-08T09:29:53.578Z,47.89
2022-08-08T09:32:36.989Z,47.65
2022-08-08T09:35:08.900Z,45.53
2022-08-08T09:38:00.772Z,44.63
2022-08-08T09:40:47.762Z,45.63
2022-08-08T09:43:41.137Z,45.50
2022-08-08T09:46:30.419Z,46.20
2022-08-08T09:49:17.999Z,45.97
2022-08-08T09:52:06.486Z,46.98
2022-08-08T09:54:42.049Z,45.22
2022-08-08T09:57:16.115Z,45.22
2022-08-08T10:00:28.864Z,45.15
2022-08-08T10:02:44.996Z,46.09
2022-08-08T10:05:15.640Z,46.21
2022-08-08T10:08:00.537Z,45.91
2022-08-08T10:10:31.862Z,46.64
2022-08-08T10:13:14.366Z,46.70
2022-08-08T10:16:00.702Z,47.06
2022-08-08T10:18:31.325Z,46.62
2022-08-08T10:21:23.295Z,46.20
2022-08-08T10:23:58.625Z,46.43
2022-08-08T10:26:56.749Z,47.26
2022-08-08T10:29:56.793Z,46.95
2022-08-08T10:32:39.057Z,47.08
2022-08-08T10:35:11.775Z,47.29
2022-08-08T10:37:56.413Z,47.80
2022-08-08T10:40:30.841Z,47.39
2022-08-08T10:43:02.027Z,47.67
2022-08-08T10:45:41.188Z,47.83
2022-08-08T10:48:12.604Z,47.59
2022-08-08T10:50:42.515Z,47.66
2022-08-08T10:53:12.806Z,47.06
2022-08-08T10:55:46.815Z,46.50
2022-08-08T10:58:15.585Z,46.98
2022-08-08T11:00:52.663Z,45.92
2022-08-08T11:04:00.668Z,46.58
2022-08-08T11:06:31.324Z,46.95
2022-08-08T11:09:09.690Z,46.83
2022-08-08T11:12:06.556Z,46.74
2022-08-08T11:14:32.902Z,45.11
2022-08-08T11:17:02.123Z,45.71
2022-08-08T11:19:31.699Z,45.80
2022-08-08T11:22:04.190Z,46.54
2022-08-08T11:24:36.954Z,45.97
2022-08-08T11:27:19.176Z,45.52
2022-08-08T11:30:04.108Z,46.34
2022-08-08T11:32:47.589Z,46.80
2022-08-08T11:35:27.460Z,45.28
2022-08-08T11:38:39.784Z,44.55
2022-08-08T11:40:53.151Z,45.16
2022-08-08T11:43:23.757Z,45.31
2022-08-08T11:46:09.738Z,45.80
2022-08-08T11:48:44.894Z,45.21
2022-08-08T11:51:37.902Z,45.81
2022-08-08T11:54:05.050Z,45.62
2022-08-08T11:56:56.350Z,45.25
2022-08-08T12:00:00.356Z,44.70
2022-08-08T12:02:32.202Z,45.28
2022-08-08T12:05:07.338Z,44.83
2022-08-08T12:07:49.685Z,43.96
2022-08-08T12:10:21.361Z,44.20
2022-08-08T12:12:51.872Z,42.37
2022-08-08T12:15:30.586Z,41.49
2022-08-08T12:18:17.996Z,41.89
2022-08-08T12:20:50.656Z,43.19
2022-08-08T12:23:43.289Z,44.11
2022-08-08T12:26:27.969Z,44.44
2022-08-08T12:29:21.236Z,42.95
2022-08-08T12:32:02.887Z,41.54
2022-08-08T12:34:38.303Z,42.87
2022-08-08T12:37:11.242Z,42.92
2022-08-08T12:39:40.318Z,43.18
2022-08-08T12:42:33.979Z,43.07
2022-08-08T12:45:53.866Z,43.85
2022-08-08T12:48:09.665Z,43.26
2022-08-08T12:50:47.955Z,43.72
2022-08-08T12:53:42.223Z,43.51
2022-08-08T12:56:18.788Z,44.06
2022-08-08T12:58:50.589Z,43.35
2022-08-08T13:01:28.817Z,43.16
2022-08-08T13:04:19.009Z,43.46
2022-08-08T13:07:01.235Z,43.83
2022-08-08T13:10:00.646Z,41.57
2022-08-08T13:12:29.741Z,41.35
2022-08-08T13:14:58.765Z,41.71
2022-08-08T13:18:09.970Z,41.71
2022-08-08T13:20:17.396Z,42.02
2022-08-08T13:22:46.996Z,42.08
2022-08-08T13:25:17.845Z,41.84
2022-08-08T13:27:53.272Z,42.57
2022-08-08T13:30:26.132Z,41.08
2022-08-08T13:32:56.258Z,41.60
2022-08-08T13:35:29.525Z,41.77
2022-08-08T13:38:08.474Z,41.91
2022-08-08T13:40:44.643Z,41.41
2022-08-08T13:43:14.066Z,40.82
2022-08-08T13:45:47.298Z,39.75
2022-08-08T13:48:17.030Z,40.49
2022-08-08T13:50:53.831Z,40.47
2022-08-08T13:53:27.996Z,41.02
2022-08-08T13:56:02.327Z,40.43
2022-08-08T13:58:30.875Z,39.26
2022-08-08T14:00:58.626Z,39.27
2022-08-08T14:03:52.998Z,39.09
2022-08-08T14:06:20.500Z,39.16
2022-08-08T14:09:24.278Z,39.81
2022-08-08T14:11:51.283Z,39.17
2022-08-08T14:14:21.168Z,39.53
2022-08-08T14:16:55.413Z,39.45
2022-08-08T14:19:57.576Z,39.71
2022-08-08T14:22:24.241Z,39.07
2022-08-08T14:24:55.868Z,42.71
2022-08-08T14:27:30.339Z,42.46
2022-08-08T14:30:08.251Z,38.77
2022-08-08T14:32:52.652Z,31.31
2022-08-08T14:35:22.531Z,28.58
2022-08-08T14:37:59.638Z,27.68
2022-08-08T14:40:29.926Z,26.47
2022-08-08T14:43:01.573Z,27.39
2022-08-08T14:45:46.788Z,28.61
2022-08-08T14:48:34.408Z,28.97
2022-08-08T14:51:07.696Z,28.44
2022-08-08T14:53:55.981Z,28.86
2022-08-08T14:56:29.397Z,28.89
2022-08-08T14:58:58.649Z,28.83
2022-08-08T15:01:37.569Z,28.43
2022-08-08T15:04:09.571Z,27.92
2022-08-08T15:06:39.019Z,28.24
2022-08-08T15:09:07.782Z,27.08
2022-08-08T15:11:43.326Z,28.34
2022-08-08T15:14:25.280Z,27.89
2022-08-08T15:16:55.011Z,27.95
2022-08-08T15:19:27.844Z,27.02
2022-08-08T15:21:57.786Z,27.43
2022-08-08T15:24:31.269Z,26.93
2022-08-08T15:27:11.980Z,26.58
2022-08-08T15:29:49.414Z,26.99
2022-08-08T15:32:30.565Z,26.25
2022-08-08T15:35:00.203Z,27.04
2022-08-08T15:37:28.575Z,26.61
2022-08-08T15:39:59.160Z,25.78
2022-08-08T15:42:32.577Z,25.48
2022-08-08T15:45:03.198Z,26.17
2022-08-08T15:47:32.160Z,25.48
2022-08-08T15:49:59.998Z,25.53
2022-08-08T15:52:27.787Z,25.27
2022-08-08T15:54:55.523Z,25.22
2022-08-08T15:57:23.548Z,26.06
2022-08-08T16:00:05.882Z,24.77
2022-08-08T16:02:44.189Z,26.30
2022-08-08T16:05:18.916Z,25.70
2022-08-08T16:07:52.730Z,26.22
2022-08-08T16:13:08.968Z,27.22
2022-08-08T16:13:30.298Z,27.94
2022-08-08T16:16:09.196Z,28.49
2022-08-08T16:18:44.604Z,28.17
2022-08-08T16:21:27.660Z,29.10
2022-08-08T16:23:56.368Z,29.12
2022-08-08T16:26:34.108Z,28.64
2022-08-08T16:29:08.182Z,29.07
2022-08-08T16:31:40.888Z,30.32
2022-08-08T16:34:11.301Z,30.46
2022-08-08T16:36:40.811Z,30.33
2022-08-08T16:39:28.171Z,30.76
2022-08-08T16:42:00.806Z,30.06
2022-08-08T16:44:33.769Z,30.60
2022-08-08T16:47:16.621Z,30.29
2022-08-08T16:49:47.761Z,30.51
2022-08-08T16:55:05.576Z,29.51
2022-08-08T16:55:42.820Z,30.08
2022-08-08T16:58:15.173Z,31.10
2022-08-08T17:00:48.747Z,31.20
2022-08-08T17:03:24.398Z,31.61
2022-08-08T17:05:56.407Z,32.05
2022-08-08T17:08:24.128Z,32.24
2022-08-08T17:10:58.206Z,32.01
2022-08-08T17:13:41.405Z,32.03
2022-08-08T17:16:17.617Z,32.22
2022-08-08T17:18:49.871Z,32.57
2022-08-08T17:21:21.372Z,33.34
2022-08-08T17:23:58.129Z,33.71
2022-08-08T17:26:28.748Z,33.64
2022-08-08T17:28:58.664Z,33.99
2022-08-08T17:31:44.643Z,33.91
2022-08-08T17:34:36.855Z,34.24
2022-08-08T17:37:06.606Z,34.70
2022-08-08T17:40:03.091Z,35.80
2022-08-08T17:42:25.929Z,36.72
2022-08-08T17:44:54.417Z,36.46
2022-08-08T17:47:23.910Z,36.34
2022-08-08T17:50:07.755Z,36.59
2022-08-08T17:52:38.026Z,37.00
2022-08-08T17:56:03.638Z,37.08
2022-08-08T17:57:54.974Z,37.35
2022-08-08T18:00:25.821Z,37.70
2022-08-08T18:03:07.405Z,37.27
2022-08-08T18:05:48.147Z,37.77
2022-08-08T18:08:25.185Z,37.30
2022-08-08T18:11:09.248Z,37.71
2022-08-08T18:13:42.066Z,37.63
2022-08-08T18:16:10.220Z,38.21
2022-08-08T18:18:43.011Z,37.93
2022-08-08T18:21:34.900Z,38.21
2022-08-08T18:24:17.447Z,38.16
2022-08-08T18:26:53.730Z,38.04
2022-08-08T18:29:29.750Z,37.86
2022-08-08T18:32:00.652Z,38.08
2022-08-08T18:34:32.866Z,38.05
2022-08-08T18:37:04.676Z,37.99
2022-08-08T18:39:36.423Z,38.13
2022-08-08T18:42:06.169Z,38.18
2022-08-08T18:44:42.109Z,38.55
2022-08-08T18:47:09.910Z,38.14
2022-08-08T18:49:49.136Z,38.07
2022-08-08T18:52:25.778Z,38.30
2022-08-08T18:54:59.142Z,38.60
2022-08-08T18:57:28.174Z,38.67
2022-08-08T19:00:00.677Z,38.67
2022-08-08T19:02:30.065Z,39.28
2022-08-08T19:04:57.911Z,38.74
2022-08-08T19:07:29.629Z,38.57
2022-08-08T19:10:15.380Z,39.42
2022-08-08T19:12:44.740Z,39.85
2022-08-08T19:15:21.797Z,39.50
2022-08-08T19:18:31.306Z,39.58
2022-08-08T19:20:43.033Z,39.63
2022-08-08T19:23:14.675Z,39.83
2022-08-08T19:26:20.501Z,39.85
2022-08-08T19:28:33.654Z,40.35
2022-08-08T19:31:09.165Z,39.42
2022-08-08T19:33:39.458Z,40.14
2022-08-08T19:36:27.697Z,40.35
2022-08-08T19:38:56.152Z,40.22
2022-08-08T19:41:29.545Z,40.29
2022-08-08T19:44:03.558Z,39.96
2022-08-08T19:46:40.287Z,40.47
2022-08-08T19:49:09.721Z,40.70
2022-08-08T19:51:44.026Z,40.28
2022-08-08T19:54:13.316Z,40.62
2022-08-08T19:56:48.887Z,41.26
2022-08-08T19:59:22.089Z,40.55
2022-08-08T20:02:03.339Z,41.03
2022-08-08T20:04:33.027Z,41.01
2022-08-08T20:07:05.236Z,40.04
2022-08-08T20:09:56.130Z,39.32
2022-08-08T20:12:34.435Z,38.91
2022-08-08T20:15:14.589Z,38.45
2022-08-08T20:17:46.374Z,38.99
2022-08-08T20:20:19.686Z,38.74
2022-08-08T20:22:53.912Z,39.03
2022-08-08T20:25:26.538Z,39.20
2022-08-08T20:28:06.521Z,38.88
2022-08-08T20:30:55.840Z,39.34
2022-08-08T20:35:58.029Z,39.79
2022-08-08T20:38:32.071Z,40.07
2022-08-08T20:41:01.106Z,39.87
2022-08-08T20:43:43.490Z,39.46
2022-08-08T20:46:16.017Z,39.88
2022-08-08T20:48:45.443Z,39.88
2022-08-08T20:51:14.442Z,39.50
2022-08-08T20:54:00.726Z,40.18
2022-08-08T20:56:35.184Z,39.97
2022-08-08T20:59:08.964Z,40.00
2022-08-08T21:01:44.153Z,40.08
2022-08-08T21:04:27.714Z,40.82
2022-08-08T21:06:55.754Z,40.76
2022-08-08T21:09:23.748Z,40.52
2022-08-08T21:12:03.252Z,40.63
2022-08-08T21:14:34.685Z,40.62
2022-08-08T21:17:06.349Z,40.39
2022-08-08T21:19:45.979Z,40.71
2022-08-08T21:22:16.093Z,40.76
2022-08-08T21:24:53.030Z,40.13
2022-08-08T21:28:06.615Z,40.21
2022-08-08T21:30:18.713Z,41.02
2022-08-08T21:32:51.194Z,40.88
2022-08-08T21:36:17.032Z,40.37
2022-08-08T21:38:11.870Z,40.72
2022-08-08T21:40:56.055Z,40.56
2022-08-08T21:43:24.500Z,41.18
2022-08-08T21:48:08.837Z,41.14
2022-08-08T21:48:49.322Z,41.40
2022-08-08T21:51:31.692Z,41.99
2022-08-08T21:54:31.635Z,42.19
2022-08-08T21:56:59.118Z,42.04
2022-08-08T21:59:43.875Z,41.81
2022-08-08T22:02:19.605Z,42.00
2022-08-08T22:04:52.306Z,41.98
2022-08-08T22:07:20.066Z,41.58
2022-08-08T22:09:55.069Z,41.48
2022-08-08T22:12:22.819Z,42.13
2022-08-08T22:14:53.068Z,42.09
2022-08-08T22:17:22.163Z,42.00
2022-08-08T22:20:10.741Z,41.63
2022-08-08T22:22:38.735Z,41.44
2022-08-08T22:25:24.467Z,41.52
2022-08-08T22:28:02.693Z,42.13
2022-08-08T22:30:41.522Z,42.01
2022-08-08T22:33:22.189Z,41.74
2022-08-08T22:36:04.365Z,42.10
2022-08-08T22:38:47.955Z,42.32
2022-08-08T22:41:21.131Z,42.46
2022-08-08T22:44:05.654Z,42.83
2022-08-08T22:46:34.487Z,42.65
2022-08-08T22:49:09.023Z,43.38
2022-08-08T22:51:42.743Z,43.11
2022-08-08T22:54:30.675Z,42.87
2022-08-08T22:57:11.591Z,42.94
2022-08-08T22:59:59.077Z,43.95
2022-08-08T23:02:28.952Z,44.03
2022-08-08T23:04:58.562Z,44.36
2022-08-08T23:07:57.097Z,44.23
2022-08-08T23:10:25.297Z,44.54
2022-08-08T23:12:54.463Z,44.26
2022-08-08T23:16:41.549Z,44.31
2022-08-08T23:18:11.521Z,44.56
2022-08-08T23:20:43.391Z,44.72
2022-08-08T23:23:12.106Z,45.07
2022-08-08T23:25:48.551Z,45.63
2022-08-08T23:28:18.038Z,45.74
2022-08-08T23:30:47.178Z,45.77
2022-08-08T23:33:19.192Z,45.52
2022-08-08T23:36:06.754Z,45.27
2022-08-08T23:38:44.073Z,45.83
2022-08-08T23:41:22.812Z,46.04
2022-08-08T23:43:54.373Z,46.13
2022-08-08T23:49:04.025Z,46.51
2022-08-08T23:49:14.816Z,46.52
2022-08-08T23:52:07.297Z,46.22
2022-08-08T23:54:43.599Z,46.94
2022-08-08T23:57:26.869Z,46.75
